sensor_id;sensor_type;location;lat;lon;timestamp;P1;durP1;ratioP1;P2;durP2;ratioP2
13419;SDS011;6781;58.440;15.470;2023-09-19T00:02:04;29.25;;;20.55;;
13419;SDS011;6781;58.440;15.470;2023-09-19T00:04:34;25.85;;;19.73;;
13419;SDS011;6781;58.440;15.470;2023-09-19T00:07:05;23.92;;;20.20;;
13419;SDS011;6781;58.440;15.470;2023-09-19T00:09:32;27.17;;;20.50;;
13419;SDS011;6781;58.440;15.470;2023-09-19T00:12:02;25.02;;;20.88;;
13419;SDS011;6781;58.440;15.470;2023-09-19T00:14:30;28.05;;;20.95;;
13419;SDS011;6781;58.440;15.470;2023-09-19T00:16:59;25.23;;;20.52;;
13419;SDS011;6781;58.440;15.470;2023-09-19T00:19:31;26.38;;;20.52;;
13419;SDS011;6781;58.440;15.470;2023-09-19T00:22:00;30.05;;;21.05;;
13419;SDS011;6781;58.440;15.470;2023-09-19T00:24:28;27.67;;;20.85;;
13419;SDS011;6781;58.440;15.470;2023-09-19T00:26:55;30.17;;;21.75;;
13419;SDS011;6781;58.440;15.470;2023-09-19T00:29:24;33.15;;;21.10;;
13419;SDS011;6781;58.440;15.470;2023-09-19T00:31:54;28.63;;;21.30;;
13419;SDS011;6781;58.440;15.470;2023-09-19T00:34:22;28.80;;;21.15;;
13419;SDS011;6781;58.440;15.470;2023-09-19T00:36:50;29.48;;;21.33;;
13419;SDS011;6781;58.440;15.470;2023-09-19T00:39:21;34.90;;;22.30;;
13419;SDS011;6781;58.440;15.470;2023-09-19T00:41:50;28.42;;;21.58;;
13419;SDS011;6781;58.440;15.470;2023-09-19T00:44:19;27.45;;;21.73;;
13419;SDS011;6781;58.440;15.470;2023-09-19T00:46:48;28.17;;;21.95;;
13419;SDS011;6781;58.440;15.470;2023-09-19T00:49:16;30.95;;;22.52;;
13419;SDS011;6781;58.440;15.470;2023-09-19T00:51:45;31.92;;;21.77;;
13419;SDS011;6781;58.440;15.470;2023-09-19T00:54:13;30.98;;;23.58;;
13419;SDS011;6781;58.440;15.470;2023-09-19T00:56:45;25.42;;;21.02;;
13419;SDS011;6781;58.440;15.470;2023-09-19T00:59:14;32.28;;;20.98;;
13419;SDS011;6781;58.440;15.470;2023-09-19T01:01:41;28.23;;;21.75;;
13419;SDS011;6781;58.440;15.470;2023-09-19T01:04:11;29.40;;;21.15;;
13419;SDS011;6781;58.440;15.470;2023-09-19T01:06:39;30.50;;;21.95;;
13419;SDS011;6781;58.440;15.470;2023-09-19T01:09:06;28.48;;;22.02;;
13419;SDS011;6781;58.440;15.470;2023-09-19T01:11:35;30.98;;;23.05;;
13419;SDS011;6781;58.440;15.470;2023-09-19T01:14:13;27.73;;;22.08;;
13419;SDS011;6781;58.440;15.470;2023-09-19T01:16:48;24.02;;;19.73;;
13419;SDS011;6781;58.440;15.470;2023-09-19T01:19:33;27.90;;;20.75;;
13419;SDS011;6781;58.440;15.470;2023-09-19T01:22:32;21.20;;;17.80;;
13419;SDS011;6781;58.440;15.470;2023-09-19T01:28:20;22.75;;;17.90;;
13419;SDS011;6781;58.440;15.470;2023-09-19T01:30:57;27.50;;;17.98;;
13419;SDS011;6781;58.440;15.470;2023-09-19T01:33:28;31.90;;;19.00;;
13419;SDS011;6781;58.440;15.470;2023-09-19T01:36:16;26.77;;;20.00;;
13419;SDS011;6781;58.440;15.470;2023-09-19T01:38:43;26.85;;;19.45;;
13419;SDS011;6781;58.440;15.470;2023-09-19T01:41:12;19.38;;;17.30;;
13419;SDS011;6781;58.440;15.470;2023-09-19T01:43:45;24.73;;;17.88;;
13419;SDS011;6781;58.440;15.470;2023-09-19T01:46:18;23.45;;;17.65;;
13419;SDS011;6781;58.440;15.470;2023-09-19T01:48:54;23.02;;;16.33;;
13419;SDS011;6781;58.440;15.470;2023-09-19T01:51:32;17.83;;;15.25;;
13419;SDS011;6781;58.440;15.470;2023-09-19T01:54:04;25.08;;;17.13;;
13419;SDS011;6781;58.440;15.470;2023-09-19T01:56:40;54.53;;;19.05;;
13419;SDS011;6781;58.440;15.470;2023-09-19T01:59:15;27.05;;;17.90;;
13419;SDS011;6781;58.440;15.470;2023-09-19T02:04:33;27.35;;;20.23;;
13419;SDS011;6781;58.440;15.470;2023-09-19T02:07:02;34.95;;;21.00;;
13419;SDS011;6781;58.440;15.470;2023-09-19T02:09:30;24.30;;;19.23;;
13419;SDS011;6781;58.440;15.470;2023-09-19T02:12:00;26.27;;;19.30;;
13419;SDS011;6781;58.440;15.470;2023-09-19T02:14:29;28.75;;;20.83;;
13419;SDS011;6781;58.440;15.470;2023-09-19T02:16:57;30.38;;;21.50;;
13419;SDS011;6781;58.440;15.470;2023-09-19T02:19:26;30.10;;;22.08;;
13419;SDS011;6781;58.440;15.470;2023-09-19T02:21:56;39.67;;;24.98;;
13419;SDS011;6781;58.440;15.470;2023-09-19T02:24:29;30.35;;;22.15;;
13419;SDS011;6781;58.440;15.470;2023-09-19T02:27:13;31.85;;;23.75;;
13419;SDS011;6781;58.440;15.470;2023-09-19T02:29:41;39.25;;;26.45;;
13419;SDS011;6781;58.440;15.470;2023-09-19T02:32:08;43.28;;;27.40;;
13419;SDS011;6781;58.440;15.470;2023-09-19T02:34:35;34.85;;;23.55;;
13419;SDS011;6781;58.440;15.470;2023-09-19T02:37:05;40.55;;;25.63;;
13419;SDS011;6781;58.440;15.470;2023-09-19T02:39:33;63.63;;;26.98;;
13419;SDS011;6781;58.440;15.470;2023-09-19T02:42:01;31.95;;;22.52;;
13419;SDS011;6781;58.440;15.470;2023-09-19T02:44:29;38.95;;;24.00;;
13419;SDS011;6781;58.440;15.470;2023-09-19T02:46:56;50.15;;;25.08;;
13419;SDS011;6781;58.440;15.470;2023-09-19T02:49:24;46.28;;;24.60;;
13419;SDS011;6781;58.440;15.470;2023-09-19T02:51:51;41.17;;;26.17;;
13419;SDS011;6781;58.440;15.470;2023-09-19T02:54:19;50.65;;;26.42;;
13419;SDS011;6781;58.440;15.470;2023-09-19T02:56:47;38.20;;;23.65;;
13419;SDS011;6781;58.440;15.470;2023-09-19T02:59:14;35.30;;;25.77;;
13419;SDS011;6781;58.440;15.470;2023-09-19T03:01:42;38.10;;;25.80;;
13419;SDS011;6781;58.440;15.470;2023-09-19T03:04:11;35.10;;;25.63;;
13419;SDS011;6781;58.440;15.470;2023-09-19T03:06:38;40.53;;;28.75;;
13419;SDS011;6781;58.440;15.470;2023-09-19T03:09:06;35.78;;;26.20;;
13419;SDS011;6781;58.440;15.470;2023-09-19T03:11:40;32.67;;;26.13;;
13419;SDS011;6781;58.440;15.470;2023-09-19T03:14:07;39.25;;;27.55;;
13419;SDS011;6781;58.440;15.470;2023-09-19T03:16:35;36.28;;;25.92;;
13419;SDS011;6781;58.440;15.470;2023-09-19T03:19:02;40.08;;;27.85;;
13419;SDS011;6781;58.440;15.470;2023-09-19T03:21:30;41.05;;;28.13;;
13419;SDS011;6781;58.440;15.470;2023-09-19T03:23:57;35.05;;;26.02;;
13419;SDS011;6781;58.440;15.470;2023-09-19T03:26:24;43.42;;;28.33;;
13419;SDS011;6781;58.440;15.470;2023-09-19T03:28:53;31.08;;;24.50;;
13419;SDS011;6781;58.440;15.470;2023-09-19T03:31:20;27.35;;;22.30;;
13419;SDS011;6781;58.440;15.470;2023-09-19T03:33:47;36.40;;;26.42;;
13419;SDS011;6781;58.440;15.470;2023-09-19T03:36:14;34.30;;;24.85;;
13419;SDS011;6781;58.440;15.470;2023-09-19T03:38:41;44.35;;;30.13;;
13419;SDS011;6781;58.440;15.470;2023-09-19T03:41:08;43.38;;;30.55;;
13419;SDS011;6781;58.440;15.470;2023-09-19T03:43:39;42.92;;;29.80;;
13419;SDS011;6781;58.440;15.470;2023-09-19T03:46:07;37.35;;;28.33;;
13419;SDS011;6781;58.440;15.470;2023-09-19T03:48:36;47.67;;;31.23;;
13419;SDS011;6781;58.440;15.470;2023-09-19T03:51:03;44.13;;;30.90;;
13419;SDS011;6781;58.440;15.470;2023-09-19T03:53:30;39.70;;;27.95;;
13419;SDS011;6781;58.440;15.470;2023-09-19T03:55:57;32.13;;;26.05;;
13419;SDS011;6781;58.440;15.470;2023-09-19T03:58:25;31.85;;;24.85;;
13419;SDS011;6781;58.440;15.470;2023-09-19T04:00:54;37.15;;;27.23;;
13419;SDS011;6781;58.440;15.470;2023-09-19T04:03:26;32.67;;;26.38;;
13419;SDS011;6781;58.440;15.470;2023-09-19T04:06:00;36.80;;;26.90;;
13419;SDS011;6781;58.440;15.470;2023-09-19T04:08:27;36.65;;;27.50;;
13419;SDS011;6781;58.440;15.470;2023-09-19T04:10:54;35.10;;;25.75;;
13419;SDS011;6781;58.440;15.470;2023-09-19T04:13:22;31.88;;;25.30;;
13419;SDS011;6781;58.440;15.470;2023-09-19T04:15:49;38.47;;;27.55;;
13419;SDS011;6781;58.440;15.470;2023-09-19T04:18:16;41.38;;;27.65;;
13419;SDS011;6781;58.440;15.470;2023-09-19T04:20:48;38.30;;;26.83;;
13419;SDS011;6781;58.440;15.470;2023-09-19T04:23:16;36.55;;;27.40;;
13419;SDS011;6781;58.440;15.470;2023-09-19T04:25:45;35.78;;;27.70;;
13419;SDS011;6781;58.440;15.470;2023-09-19T04:28:12;40.22;;;27.38;;
13419;SDS011;6781;58.440;15.470;2023-09-19T04:30:39;35.10;;;26.70;;
13419;SDS011;6781;58.440;15.470;2023-09-19T04:33:06;29.13;;;24.90;;
13419;SDS011;6781;58.440;15.470;2023-09-19T04:35:33;36.35;;;27.25;;
13419;SDS011;6781;58.440;15.470;2023-09-19T04:38:02;33.65;;;27.33;;
13419;SDS011;6781;58.440;15.470;2023-09-19T04:40:32;33.97;;;25.83;;
13419;SDS011;6781;58.440;15.470;2023-09-19T04:42:59;35.58;;;27.10;;
13419;SDS011;6781;58.440;15.470;2023-09-19T04:45:27;37.50;;;28.67;;
13419;SDS011;6781;58.440;15.470;2023-09-19T04:47:54;38.83;;;29.23;;
13419;SDS011;6781;58.440;15.470;2023-09-19T04:50:21;36.97;;;27.25;;
13419;SDS011;6781;58.440;15.470;2023-09-19T04:52:52;32.50;;;24.83;;
13419;SDS011;6781;58.440;15.470;2023-09-19T04:55:20;38.15;;;29.50;;
13419;SDS011;6781;58.440;15.470;2023-09-19T04:57:47;37.97;;;25.95;;
13419;SDS011;6781;58.440;15.470;2023-09-19T05:00:16;31.33;;;26.23;;
13419;SDS011;6781;58.440;15.470;2023-09-19T05:02:48;28.80;;;24.00;;
13419;SDS011;6781;58.440;15.470;2023-09-19T05:05:16;32.83;;;25.88;;
13419;SDS011;6781;58.440;15.470;2023-09-19T05:07:44;30.70;;;24.92;;
13419;SDS011;6781;58.440;15.470;2023-09-19T05:10:17;29.52;;;24.55;;
13419;SDS011;6781;58.440;15.470;2023-09-19T05:12:52;31.75;;;24.38;;
13419;SDS011;6781;58.440;15.470;2023-09-19T05:15:19;32.45;;;24.67;;
13419;SDS011;6781;58.440;15.470;2023-09-19T05:17:49;29.02;;;23.45;;
13419;SDS011;6781;58.440;15.470;2023-09-19T05:20:19;32.42;;;24.92;;
13419;SDS011;6781;58.440;15.470;2023-09-19T05:22:50;30.42;;;25.63;;
13419;SDS011;6781;58.440;15.470;2023-09-19T05:25:25;35.55;;;26.25;;
13419;SDS011;6781;58.440;15.470;2023-09-19T05:27:54;33.78;;;24.73;;
13419;SDS011;6781;58.440;15.470;2023-09-19T05:30:22;36.80;;;26.23;;
13419;SDS011;6781;58.440;15.470;2023-09-19T05:32:49;31.83;;;24.83;;
13419;SDS011;6781;58.440;15.470;2023-09-19T05:35:18;31.90;;;24.05;;
13419;SDS011;6781;58.440;15.470;2023-09-19T05:37:46;28.42;;;23.92;;
13419;SDS011;6781;58.440;15.470;2023-09-19T05:40:16;31.38;;;24.70;;
13419;SDS011;6781;58.440;15.470;2023-09-19T05:42:44;28.85;;;23.63;;
13419;SDS011;6781;58.440;15.470;2023-09-19T05:45:12;28.30;;;22.50;;
13419;SDS011;6781;58.440;15.470;2023-09-19T05:47:39;27.92;;;22.63;;
13419;SDS011;6781;58.440;15.470;2023-09-19T05:50:09;32.72;;;25.13;;
13419;SDS011;6781;58.440;15.470;2023-09-19T05:52:36;35.17;;;24.48;;
13419;SDS011;6781;58.440;15.470;2023-09-19T05:55:04;27.48;;;24.45;;
13419;SDS011;6781;58.440;15.470;2023-09-19T05:57:34;27.75;;;24.27;;
13419;SDS011;6781;58.440;15.470;2023-09-19T06:00:04;31.38;;;24.13;;
13419;SDS011;6781;58.440;15.470;2023-09-19T06:02:34;29.48;;;24.58;;
13419;SDS011;6781;58.440;15.470;2023-09-19T06:05:01;27.52;;;23.08;;
13419;SDS011;6781;58.440;15.470;2023-09-19T06:07:31;26.27;;;22.05;;
13419;SDS011;6781;58.440;15.470;2023-09-19T06:10:02;26.63;;;22.05;;
13419;SDS011;6781;58.440;15.470;2023-09-19T06:12:30;26.65;;;22.55;;
13419;SDS011;6781;58.440;15.470;2023-09-19T06:14:58;30.17;;;22.63;;
13419;SDS011;6781;58.440;15.470;2023-09-19T06:17:27;26.67;;;20.92;;
13419;SDS011;6781;58.440;15.470;2023-09-19T06:19:54;24.52;;;21.75;;
13419;SDS011;6781;58.440;15.470;2023-09-19T06:22:21;25.70;;;20.30;;
13419;SDS011;6781;58.440;15.470;2023-09-19T06:24:49;27.20;;;19.88;;
13419;SDS011;6781;58.440;15.470;2023-09-19T06:27:16;25.73;;;20.48;;
13419;SDS011;6781;58.440;15.470;2023-09-19T06:29:43;21.13;;;18.85;;
13419;SDS011;6781;58.440;15.470;2023-09-19T06:32:11;21.23;;;19.08;;
13419;SDS011;6781;58.440;15.470;2023-09-19T06:34:39;21.50;;;19.25;;
13419;SDS011;6781;58.440;15.470;2023-09-19T06:37:08;21.40;;;19.17;;
13419;SDS011;6781;58.440;15.470;2023-09-19T06:39:35;19.73;;;17.65;;
13419;SDS011;6781;58.440;15.470;2023-09-19T06:42:02;20.15;;;18.10;;
13419;SDS011;6781;58.440;15.470;2023-09-19T06:44:31;17.40;;;15.70;;
13419;SDS011;6781;58.440;15.470;2023-09-19T06:46:58;17.58;;;15.88;;
13419;SDS011;6781;58.440;15.470;2023-09-19T06:49:25;15.65;;;14.18;;
13419;SDS011;6781;58.440;15.470;2023-09-19T06:51:55;14.75;;;13.07;;
13419;SDS011;6781;58.440;15.470;2023-09-19T06:54:22;14.73;;;13.20;;
13419;SDS011;6781;58.440;15.470;2023-09-19T06:56:49;14.70;;;13.32;;
13419;SDS011;6781;58.440;15.470;2023-09-19T06:59:16;14.32;;;13.05;;
13419;SDS011;6781;58.440;15.470;2023-09-19T07:01:43;14.30;;;12.27;;
13419;SDS011;6781;58.440;15.470;2023-09-19T07:04:12;13.25;;;11.95;;
13419;SDS011;6781;58.440;15.470;2023-09-19T07:06:39;12.52;;;11.32;;
13419;SDS011;6781;58.440;15.470;2023-09-19T07:09:08;12.18;;;10.68;;
13419;SDS011;6781;58.440;15.470;2023-09-19T07:11:35;11.50;;;10.25;;
13419;SDS011;6781;58.440;15.470;2023-09-19T07:14:03;11.25;;;10.25;;
13419;SDS011;6781;58.440;15.470;2023-09-19T07:16:30;10.43;;;9.52;;
13419;SDS011;6781;58.440;15.470;2023-09-19T07:18:57;8.55;;;7.75;;
13419;SDS011;6781;58.440;15.470;2023-09-19T07:21:24;10.05;;;8.13;;
13419;SDS011;6781;58.440;15.470;2023-09-19T07:23:51;8.27;;;7.57;;
13419;SDS011;6781;58.440;15.470;2023-09-19T07:26:20;9.15;;;7.63;;
13419;SDS011;6781;58.440;15.470;2023-09-19T07:28:47;7.40;;;6.70;;
13419;SDS011;6781;58.440;15.470;2023-09-19T07:31:13;7.70;;;6.20;;
13419;SDS011;6781;58.440;15.470;2023-09-19T07:33:42;6.70;;;5.90;;
13419;SDS011;6781;58.440;15.470;2023-09-19T07:36:12;6.97;;;5.95;;
13419;SDS011;6781;58.440;15.470;2023-09-19T07:38:39;7.65;;;5.10;;
13419;SDS011;6781;58.440;15.470;2023-09-19T07:41:06;6.40;;;5.18;;
13419;SDS011;6781;58.440;15.470;2023-09-19T07:43:35;6.35;;;5.55;;
13419;SDS011;6781;58.440;15.470;2023-09-19T07:46:04;11.73;;;5.97;;
13419;SDS011;6781;58.440;15.470;2023-09-19T07:48:34;10.73;;;5.40;;
13419;SDS011;6781;58.440;15.470;2023-09-19T07:51:04;15.80;;;5.78;;
13419;SDS011;6781;58.440;15.470;2023-09-19T07:53:32;4.32;;;3.92;;
13419;SDS011;6781;58.440;15.470;2023-09-19T07:56:03;4.63;;;2.67;;
13419;SDS011;6781;58.440;15.470;2023-09-19T07:58:31;3.70;;;3.00;;
13419;SDS011;6781;58.440;15.470;2023-09-19T08:01:04;5.38;;;2.83;;
13419;SDS011;6781;58.440;15.470;2023-09-19T08:03:31;3.72;;;2.70;;
13419;SDS011;6781;58.440;15.470;2023-09-19T08:05:59;4.30;;;2.90;;
13419;SDS011;6781;58.440;15.470;2023-09-19T08:08:26;3.50;;;2.60;;
13419;SDS011;6781;58.440;15.470;2023-09-19T08:10:53;5.45;;;2.17;;
13419;SDS011;6781;58.440;15.470;2023-09-19T08:13:21;2.88;;;2.28;;
13419;SDS011;6781;58.440;15.470;2023-09-19T08:15:49;3.60;;;2.28;;
13419;SDS011;6781;58.440;15.470;2023-09-19T08:18:19;3.53;;;2.15;;
13419;SDS011;6781;58.440;15.470;2023-09-19T08:20:51;3.38;;;2.25;;
13419;SDS011;6781;58.440;15.470;2023-09-19T08:23:18;2.65;;;2.10;;
13419;SDS011;6781;58.440;15.470;2023-09-19T08:25:46;6.05;;;1.80;;
13419;SDS011;6781;58.440;15.470;2023-09-19T08:28:13;1.83;;;1.73;;
13419;SDS011;6781;58.440;15.470;2023-09-19T08:30:44;5.85;;;1.85;;
13419;SDS011;6781;58.440;15.470;2023-09-19T08:33:11;1.77;;;1.52;;
13419;SDS011;6781;58.440;15.470;2023-09-19T08:35:41;1.75;;;1.35;;
13419;SDS011;6781;58.440;15.470;2023-09-19T08:38:10;4.03;;;1.63;;
13419;SDS011;6781;58.440;15.470;2023-09-19T08:40:39;3.33;;;1.40;;
13419;SDS011;6781;58.440;15.470;2023-09-19T08:43:07;1.70;;;1.48;;
13419;SDS011;6781;58.440;15.470;2023-09-19T08:45:34;2.60;;;1.40;;
13419;SDS011;6781;58.440;15.470;2023-09-19T08:48:05;1.30;;;1.20;;
13419;SDS011;6781;58.440;15.470;2023-09-19T08:50:47;2.92;;;1.50;;
13419;SDS011;6781;58.440;15.470;2023-09-19T08:53:20;4.22;;;1.40;;
13419;SDS011;6781;58.440;15.470;2023-09-19T08:55:57;3.08;;;1.52;;
13419;SDS011;6781;58.440;15.470;2023-09-19T08:58:29;2.42;;;1.38;;
13419;SDS011;6781;58.440;15.470;2023-09-19T09:01:00;2.03;;;1.40;;
13419;SDS011;6781;58.440;15.470;2023-09-19T09:03:29;5.25;;;1.40;;
13419;SDS011;6781;58.440;15.470;2023-09-19T09:06:01;2.38;;;1.58;;
13419;SDS011;6781;58.440;15.470;2023-09-19T09:08:28;3.70;;;1.60;;
13419;SDS011;6781;58.440;15.470;2023-09-19T09:10:57;2.75;;;1.73;;
13419;SDS011;6781;58.440;15.470;2023-09-19T09:13:25;1.52;;;1.42;;
13419;SDS011;6781;58.440;15.470;2023-09-19T09:15:53;3.75;;;1.40;;
13419;SDS011;6781;58.440;15.470;2023-09-19T09:18:20;4.38;;;1.83;;
13419;SDS011;6781;58.440;15.470;2023-09-19T09:20:47;3.58;;;1.38;;
13419;SDS011;6781;58.440;15.470;2023-09-19T09:23:16;3.60;;;1.60;;
13419;SDS011;6781;58.440;15.470;2023-09-19T09:25:49;5.65;;;1.58;;
13419;SDS011;6781;58.440;15.470;2023-09-19T09:28:20;1.98;;;1.55;;
13419;SDS011;6781;58.440;15.470;2023-09-19T09:30:48;2.13;;;1.30;;
13419;SDS011;6781;58.440;15.470;2023-09-19T09:33:16;4.30;;;1.63;;
13419;SDS011;6781;58.440;15.470;2023-09-19T09:35:47;2.45;;;1.42;;
13419;SDS011;6781;58.440;15.470;2023-09-19T09:38:18;3.45;;;1.73;;
13419;SDS011;6781;58.440;15.470;2023-09-19T09:40:46;2.80;;;1.15;;
13419;SDS011;6781;58.440;15.470;2023-09-19T09:43:24;5.15;;;1.60;;
13419;SDS011;6781;58.440;15.470;2023-09-19T09:46:05;1.73;;;1.17;;
13419;SDS011;6781;58.440;15.470;2023-09-19T09:48:59;3.22;;;1.27;;
13419;SDS011;6781;58.440;15.470;2023-09-19T09:51:45;3.13;;;1.40;;
13419;SDS011;6781;58.440;15.470;2023-09-19T09:54:24;2.25;;;1.30;;
13419;SDS011;6781;58.440;15.470;2023-09-19T09:56:58;2.05;;;1.02;;
13419;SDS011;6781;58.440;15.470;2023-09-19T09:59:49;4.50;;;1.40;;
13419;SDS011;6781;58.440;15.470;2023-09-19T10:02:19;4.82;;;1.48;;
13419;SDS011;6781;58.440;15.470;2023-09-19T10:04:51;2.40;;;1.45;;
13419;SDS011;6781;58.440;15.470;2023-09-19T10:07:27;2.58;;;1.40;;
13419;SDS011;6781;58.440;15.470;2023-09-19T10:09:59;5.10;;;1.80;;
13419;SDS011;6781;58.440;15.470;2023-09-19T10:12:42;2.25;;;1.30;;
13419;SDS011;6781;58.440;15.470;2023-09-19T10:15:13;5.95;;;1.33;;
13419;SDS011;6781;58.440;15.470;2023-09-19T10:17:42;1.75;;;1.38;;
13419;SDS011;6781;58.440;15.470;2023-09-19T10:20:14;3.15;;;1.30;;
13419;SDS011;6781;58.440;15.470;2023-09-19T10:22:59;3.00;;;1.38;;
13419;SDS011;6781;58.440;15.470;2023-09-19T10:25:27;2.42;;;1.25;;
13419;SDS011;6781;58.440;15.470;2023-09-19T10:27:56;1.70;;;1.10;;
13419;SDS011;6781;58.440;15.470;2023-09-19T10:30:28;4.47;;;1.45;;
13419;SDS011;6781;58.440;15.470;2023-09-19T10:32:57;3.22;;;1.48;;
13419;SDS011;6781;58.440;15.470;2023-09-19T10:35:27;4.63;;;1.80;;
13419;SDS011;6781;58.440;15.470;2023-09-19T10:37:55;3.28;;;1.38;;
13419;SDS011;6781;58.440;15.470;2023-09-19T10:40:27;4.25;;;1.67;;
13419;SDS011;6781;58.440;15.470;2023-09-19T10:43:03;6.22;;;2.20;;
13419;SDS011;6781;58.440;15.470;2023-09-19T10:45:32;1.65;;;1.27;;
13419;SDS011;6781;58.440;15.470;2023-09-19T10:48:00;5.30;;;1.83;;
13419;SDS011;6781;58.440;15.470;2023-09-19T10:50:31;3.13;;;1.45;;
13419;SDS011;6781;58.440;15.470;2023-09-19T10:53:02;4.57;;;1.75;;
13419;SDS011;6781;58.440;15.470;2023-09-19T10:55:34;4.47;;;1.60;;
13419;SDS011;6781;58.440;15.470;2023-09-19T10:58:02;5.15;;;1.75;;
13419;SDS011;6781;58.440;15.470;2023-09-19T11:00:52;4.95;;;1.80;;
13419;SDS011;6781;58.440;15.470;2023-09-19T11:03:21;7.57;;;1.85;;
13419;SDS011;6781;58.440;15.470;2023-09-19T11:06:01;10.57;;;1.90;;
13419;SDS011;6781;58.440;15.470;2023-09-19T11:08:53;5.30;;;1.85;;
13419;SDS011;6781;58.440;15.470;2023-09-19T11:11:41;4.35;;;1.88;;
13419;SDS011;6781;58.440;15.470;2023-09-19T11:14:14;5.55;;;1.90;;
13419;SDS011;6781;58.440;15.470;2023-09-19T11:25:52;2.60;;;1.35;;
13419;SDS011;6781;58.440;15.470;2023-09-19T11:28:30;5.22;;;1.50;;
13419;SDS011;6781;58.440;15.470;2023-09-19T11:40:32;4.53;;;1.45;;
13419;SDS011;6781;58.440;15.470;2023-09-19T11:42:59;5.05;;;1.48;;
13419;SDS011;6781;58.440;15.470;2023-09-19T11:46:08;4.10;;;1.20;;
13419;SDS011;6781;58.440;15.470;2023-09-19T11:48:37;3.00;;;1.40;;
13419;SDS011;6781;58.440;15.470;2023-09-19T11:51:12;3.72;;;1.45;;
13419;SDS011;6781;58.440;15.470;2023-09-19T11:53:49;2.60;;;1.20;;
13419;SDS011;6781;58.440;15.470;2023-09-19T11:56:17;3.30;;;1.38;;
13419;SDS011;6781;58.440;15.470;2023-09-19T11:58:46;2.95;;;1.20;;
13419;SDS011;6781;58.440;15.470;2023-09-19T12:01:21;3.72;;;1.48;;
13419;SDS011;6781;58.440;15.470;2023-09-19T12:03:52;3.05;;;1.42;;
13419;SDS011;6781;58.440;15.470;2023-09-19T12:06:22;5.55;;;1.90;;
13419;SDS011;6781;58.440;15.470;2023-09-19T12:08:49;4.20;;;1.42;;
13419;SDS011;6781;58.440;15.470;2023-09-19T12:11:19;4.65;;;1.60;;
13419;SDS011;6781;58.440;15.470;2023-09-19T12:13:49;5.35;;;1.27;;
13419;SDS011;6781;58.440;15.470;2023-09-19T12:16:18;5.07;;;1.52;;
13419;SDS011;6781;58.440;15.470;2023-09-19T12:18:48;2.85;;;1.20;;
13419;SDS011;6781;58.440;15.470;2023-09-19T12:21:23;1.20;;;0.98;;
13419;SDS011;6781;58.440;15.470;2023-09-19T12:24:05;4.13;;;1.27;;
13419;SDS011;6781;58.440;15.470;2023-09-19T12:26:40;3.42;;;1.60;;
13419;SDS011;6781;58.440;15.470;2023-09-19T12:29:13;3.17;;;1.20;;
13419;SDS011;6781;58.440;15.470;2023-09-19T12:31:47;2.88;;;1.58;;
13419;SDS011;6781;58.440;15.470;2023-09-19T12:34:17;3.83;;;1.50;;
13419;SDS011;6781;58.440;15.470;2023-09-19T12:36:47;1.77;;;1.05;;
13419;SDS011;6781;58.440;15.470;2023-09-19T12:39:24;2.45;;;1.10;;
13419;SDS011;6781;58.440;15.470;2023-09-19T12:41:52;1.65;;;1.10;;
13419;SDS011;6781;58.440;15.470;2023-09-19T12:44:21;2.42;;;1.52;;
13419;SDS011;6781;58.440;15.470;2023-09-19T12:46:50;2.30;;;1.30;;
13419;SDS011;6781;58.440;15.470;2023-09-19T12:49:18;4.25;;;1.10;;
13419;SDS011;6781;58.440;15.470;2023-09-19T12:51:47;3.67;;;1.02;;
13419;SDS011;6781;58.440;15.470;2023-09-19T12:54:14;7.28;;;1.67;;
13419;SDS011;6781;58.440;15.470;2023-09-19T12:56:42;3.65;;;1.52;;
13419;SDS011;6781;58.440;15.470;2023-09-19T12:59:12;1.98;;;0.93;;
13419;SDS011;6781;58.440;15.470;2023-09-19T13:01:43;5.55;;;1.30;;
13419;SDS011;6781;58.440;15.470;2023-09-19T13:04:12;6.00;;;1.25;;
13419;SDS011;6781;58.440;15.470;2023-09-19T13:06:43;2.20;;;1.08;;
13419;SDS011;6781;58.440;15.470;2023-09-19T13:09:11;3.53;;;0.70;;
13419;SDS011;6781;58.440;15.470;2023-09-19T13:11:40;1.38;;;0.77;;
13419;SDS011;6781;58.440;15.470;2023-09-19T13:14:16;3.38;;;0.93;;
13419;SDS011;6781;58.440;15.470;2023-09-19T13:16:55;2.17;;;0.70;;
13419;SDS011;6781;58.440;15.470;2023-09-19T13:22:38;0.60;;;0.52;;
13419;SDS011;6781;58.440;15.470;2023-09-19T13:25:07;4.13;;;0.75;;
13419;SDS011;6781;58.440;15.470;2023-09-19T13:27:39;4.28;;;0.85;;
13419;SDS011;6781;58.440;15.470;2023-09-19T13:30:08;4.13;;;0.80;;
13419;SDS011;6781;58.440;15.470;2023-09-19T13:32:37;5.93;;;0.70;;
13419;SDS011;6781;58.440;15.470;2023-09-19T13:35:06;2.97;;;0.50;;
13419;SDS011;6781;58.440;15.470;2023-09-19T13:37:34;0.82;;;0.70;;
13419;SDS011;6781;58.440;15.470;2023-09-19T13:40:04;2.83;;;0.75;;
13419;SDS011;6781;58.440;15.470;2023-09-19T13:42:31;5.22;;;0.93;;
13419;SDS011;6781;58.440;15.470;2023-09-19T13:44:58;1.50;;;0.75;;
13419;SDS011;6781;58.440;15.470;2023-09-19T13:47:25;2.60;;;0.95;;
13419;SDS011;6781;58.440;15.470;2023-09-19T13:49:55;1.95;;;0.77;;
13419;SDS011;6781;58.440;15.470;2023-09-19T13:52:24;1.80;;;0.90;;
13419;SDS011;6781;58.440;15.470;2023-09-19T13:54:53;0.80;;;0.75;;
13419;SDS011;6781;58.440;15.470;2023-09-19T13:57:21;2.60;;;0.77;;
13419;SDS011;6781;58.440;15.470;2023-09-19T13:59:52;3.58;;;0.88;;
13419;SDS011;6781;58.440;15.470;2023-09-19T14:02:19;1.50;;;0.80;;
13419;SDS011;6781;58.440;15.470;2023-09-19T14:04:48;2.88;;;0.80;;
13419;SDS011;6781;58.440;15.470;2023-09-19T14:07:18;2.30;;;1.42;;
13419;SDS011;6781;58.440;15.470;2023-09-19T14:09:46;3.08;;;0.80;;
13419;SDS011;6781;58.440;15.470;2023-09-19T14:12:17;1.77;;;0.85;;
13419;SDS011;6781;58.440;15.470;2023-09-19T14:14:44;1.73;;;0.80;;
13419;SDS011;6781;58.440;15.470;2023-09-19T14:17:11;6.47;;;1.05;;
13419;SDS011;6781;58.440;15.470;2023-09-19T14:19:40;3.97;;;0.77;;
13419;SDS011;6781;58.440;15.470;2023-09-19T14:22:09;2.45;;;1.23;;
13419;SDS011;6781;58.440;15.470;2023-09-19T14:24:38;3.63;;;0.77;;
13419;SDS011;6781;58.440;15.470;2023-09-19T14:27:06;1.98;;;0.88;;
13419;SDS011;6781;58.440;15.470;2023-09-19T14:29:34;2.83;;;1.08;;
13419;SDS011;6781;58.440;15.470;2023-09-19T14:32:01;1.83;;;0.70;;
13419;SDS011;6781;58.440;15.470;2023-09-19T14:34:28;3.00;;;0.90;;
13419;SDS011;6781;58.440;15.470;2023-09-19T14:36:55;2.38;;;0.98;;
13419;SDS011;6781;58.440;15.470;2023-09-19T14:39:22;1.23;;;0.90;;
13419;SDS011;6781;58.440;15.470;2023-09-19T14:41:51;3.53;;;1.05;;
13419;SDS011;6781;58.440;15.470;2023-09-19T14:44:18;3.67;;;1.13;;
13419;SDS011;6781;58.440;15.470;2023-09-19T14:46:47;2.45;;;0.90;;
13419;SDS011;6781;58.440;15.470;2023-09-19T14:49:14;2.38;;;1.10;;
13419;SDS011;6781;58.440;15.470;2023-09-19T14:51:43;2.00;;;0.80;;
13419;SDS011;6781;58.440;15.470;2023-09-19T14:54:12;1.15;;;0.77;;
13419;SDS011;6781;58.440;15.470;2023-09-19T14:56:47;4.13;;;1.00;;
13419;SDS011;6781;58.440;15.470;2023-09-19T14:59:29;4.53;;;0.90;;
13419;SDS011;6781;58.440;15.470;2023-09-19T15:01:57;2.65;;;0.98;;
13419;SDS011;6781;58.440;15.470;2023-09-19T15:04:24;1.63;;;0.90;;
13419;SDS011;6781;58.440;15.470;2023-09-19T15:06:51;1.92;;;1.00;;
13419;SDS011;6781;58.440;15.470;2023-09-19T15:09:20;5.80;;;1.10;;
13419;SDS011;6781;58.440;15.470;2023-09-19T15:11:52;3.25;;;0.95;;
13419;SDS011;6781;58.440;15.470;2023-09-19T15:14:23;2.90;;;1.02;;
13419;SDS011;6781;58.440;15.470;2023-09-19T15:16:51;4.63;;;1.08;;
13419;SDS011;6781;58.440;15.470;2023-09-19T15:19:18;2.70;;;1.10;;
13419;SDS011;6781;58.440;15.470;2023-09-19T15:21:45;2.22;;;0.90;;